sensor_id;sensor_type;location;lat;lon;timestamp;P1;durP1;ratioP1;P2;durP2;ratioP2
33814;SDS011;20121;51.910;8.406;2023-02-15T00:01:40;3.38;;;2.55;;
33814;SDS011;20121;51.910;8.406;2023-02-15T00:04:07;2.10;;;1.73;;
33814;SDS011;20121;51.910;8.406;2023-02-15T00:06:33;6.88;;;4.13;;
33814;SDS011;20121;51.910;8.406;2023-02-15T00:08:59;5.13;;;3.07;;
33814;SDS011;20121;51.910;8.406;2023-02-15T00:11:25;3.90;;;3.53;;
33814;SDS011;20121;51.910;8.406;2023-02-15T00:14:19;3.22;;;1.90;;
33814;SDS011;20121;51.910;8.406;2023-02-15T00:16:46;1.80;;;1.70;;
33814;SDS011;20121;51.910;8.406;2023-02-15T00:19:14;5.65;;;2.42;;
33814;SDS011;20121;51.910;8.406;2023-02-15T00:21:41;3.10;;;1.90;;
33814;SDS011;20121;51.910;8.406;2023-02-15T00:24:07;4.57;;;2.07;;
33814;SDS011;20121;51.910;8.406;2023-02-15T00:26:34;2.15;;;1.98;;
33814;SDS011;20121;51.910;8.406;2023-02-15T00:29:00;2.92;;;2.58;;
33814;SDS011;20121;51.910;8.406;2023-02-15T00:31:27;6.78;;;1.98;;
33814;SDS011;20121;51.910;8.406;2023-02-15T00:34:06;1.77;;;1.67;;
33814;SDS011;20121;51.910;8.406;2023-02-15T00:36:37;2.95;;;2.22;;
33814;SDS011;20121;51.910;8.406;2023-02-15T00:39:03;12.43;;;4.07;;
33814;SDS011;20121;51.910;8.406;2023-02-15T00:41:32;2.38;;;2.17;;
33814;SDS011;20121;51.910;8.406;2023-02-15T00:43:58;2.85;;;2.47;;
33814;SDS011;20121;51.910;8.406;2023-02-15T00:46:24;4.73;;;2.97;;
33814;SDS011;20121;51.910;8.406;2023-02-15T00:48:50;7.03;;;3.63;;
33814;SDS011;20121;51.910;8.406;2023-02-15T00:51:15;1.87;;;1.77;;
33814;SDS011;20121;51.910;8.406;2023-02-15T00:53:42;6.45;;;2.80;;
33814;SDS011;20121;51.910;8.406;2023-02-15T00:56:09;3.25;;;1.95;;
33814;SDS011;20121;51.910;8.406;2023-02-15T00:58:35;3.10;;;2.65;;
33814;SDS011;20121;51.910;8.406;2023-02-15T01:01:05;3.27;;;2.00;;
33814;SDS011;20121;51.910;8.406;2023-02-15T01:03:32;3.45;;;2.28;;
33814;SDS011;20121;51.910;8.406;2023-02-15T01:05:58;6.40;;;3.03;;
33814;SDS011;20121;51.910;8.406;2023-02-15T01:08:24;2.40;;;1.85;;
33814;SDS011;20121;51.910;8.406;2023-02-15T01:10:50;3.00;;;2.28;;
33814;SDS011;20121;51.910;8.406;2023-02-15T01:13:16;3.50;;;3.13;;
33814;SDS011;20121;51.910;8.406;2023-02-15T01:15:43;6.43;;;3.03;;
33814;SDS011;20121;51.910;8.406;2023-02-15T01:18:09;1.50;;;1.33;;
33814;SDS011;20121;51.910;8.406;2023-02-15T01:20:37;1.15;;;1.05;;
33814;SDS011;20121;51.910;8.406;2023-02-15T01:23:04;2.88;;;2.63;;
33814;SDS011;20121;51.910;8.406;2023-02-15T01:25:32;2.13;;;1.98;;
33814;SDS011;20121;51.910;8.406;2023-02-15T01:27:58;11.02;;;2.70;;
33814;SDS011;20121;51.910;8.406;2023-02-15T01:30:24;2.10;;;2.00;;
33814;SDS011;20121;51.910;8.406;2023-02-15T01:32:50;4.32;;;2.97;;
33814;SDS011;20121;51.910;8.406;2023-02-15T01:35:15;2.70;;;2.03;;
33814;SDS011;20121;51.910;8.406;2023-02-15T01:37:41;3.20;;;2.73;;
33814;SDS011;20121;51.910;8.406;2023-02-15T01:40:08;4.67;;;2.67;;
33814;SDS011;20121;51.910;8.406;2023-02-15T01:42:37;2.45;;;1.70;;
33814;SDS011;20121;51.910;8.406;2023-02-15T01:45:04;2.13;;;1.93;;
33814;SDS011;20121;51.910;8.406;2023-02-15T01:47:41;2.83;;;2.60;;
33814;SDS011;20121;51.910;8.406;2023-02-15T01:50:18;6.35;;;2.42;;
33814;SDS011;20121;51.910;8.406;2023-02-15T01:55:40;3.90;;;3.38;;
33814;SDS011;20121;51.910;8.406;2023-02-15T01:58:17;6.70;;;6.00;;
33814;SDS011;20121;51.910;8.406;2023-02-15T02:00:44;2.40;;;2.20;;
33814;SDS011;20121;51.910;8.406;2023-02-15T02:03:09;2.20;;;1.95;;
33814;SDS011;20121;51.910;8.406;2023-02-15T02:05:35;2.83;;;2.22;;
33814;SDS011;20121;51.910;8.406;2023-02-15T02:08:03;1.83;;;1.73;;
33814;SDS011;20121;51.910;8.406;2023-02-15T02:10:29;6.70;;;3.30;;
33814;SDS011;20121;51.910;8.406;2023-02-15T02:12:56;3.90;;;2.10;;
33814;SDS011;20121;51.910;8.406;2023-02-15T02:15:43;6.53;;;2.92;;
33814;SDS011;20121;51.910;8.406;2023-02-15T02:46:08;1.90;;;1.80;;
33814;SDS011;20121;51.910;8.406;2023-02-15T02:48:45;2.00;;;1.90;;
33814;SDS011;20121;51.910;8.406;2023-02-15T02:51:13;10.75;;;3.17;;
33814;SDS011;20121;51.910;8.406;2023-02-15T02:53:46;2.72;;;1.67;;
33814;SDS011;20121;51.910;8.406;2023-02-15T02:58:47;2.67;;;1.75;;
33814;SDS011;20121;51.910;8.406;2023-02-15T03:01:23;2.85;;;2.13;;
33814;SDS011;20121;51.910;8.406;2023-02-15T03:03:53;3.92;;;3.53;;
33814;SDS011;20121;51.910;8.406;2023-02-15T03:09:18;7.55;;;2.47;;
33814;SDS011;20121;51.910;8.406;2023-02-15T03:11:59;2.47;;;1.90;;
33814;SDS011;20121;51.910;8.406;2023-02-15T03:14:28;4.72;;;2.35;;
33814;SDS011;20121;51.910;8.406;2023-02-15T03:16:54;2.15;;;1.38;;
33814;SDS011;20121;51.910;8.406;2023-02-15T03:19:22;3.77;;;3.00;;
33814;SDS011;20121;51.910;8.406;2023-02-15T03:21:55;2.17;;;2.08;;
33814;SDS011;20121;51.910;8.406;2023-02-15T03:24:39;4.90;;;2.63;;
33814;SDS011;20121;51.910;8.406;2023-02-15T03:27:10;2.78;;;2.58;;
33814;SDS011;20121;51.910;8.406;2023-02-15T03:29:42;3.45;;;2.78;;
33814;SDS011;20121;51.910;8.406;2023-02-15T03:32:09;2.53;;;2.33;;
33814;SDS011;20121;51.910;8.406;2023-02-15T03:34:38;5.43;;;3.50;;
33814;SDS011;20121;51.910;8.406;2023-02-15T03:40:05;1.83;;;1.73;;
33814;SDS011;20121;51.910;8.406;2023-02-15T03:43:16;1.55;;;1.45;;
33814;SDS011;20121;51.910;8.406;2023-02-15T03:48:48;2.65;;;1.73;;
33814;SDS011;20121;51.910;8.406;2023-02-15T03:51:19;4.05;;;3.67;;
33814;SDS011;20121;51.910;8.406;2023-02-15T03:54:12;7.05;;;1.63;;
33814;SDS011;20121;51.910;8.406;2023-02-15T03:57:04;2.42;;;1.55;;
33814;SDS011;20121;51.910;8.406;2023-02-15T03:59:50;2.72;;;2.25;;
33814;SDS011;20121;51.910;8.406;2023-02-15T04:02:38;1.58;;;1.48;;
33814;SDS011;20121;51.910;8.406;2023-02-15T04:05:11;2.83;;;1.55;;
33814;SDS011;20121;51.910;8.406;2023-02-15T04:07:37;4.47;;;2.67;;
33814;SDS011;20121;51.910;8.406;2023-02-15T04:10:03;4.90;;;3.77;;
33814;SDS011;20121;51.910;8.406;2023-02-15T04:12:47;7.10;;;2.53;;
33814;SDS011;20121;51.910;8.406;2023-02-15T04:15:13;2.87;;;2.50;;
33814;SDS011;20121;51.910;8.406;2023-02-15T04:17:57;2.58;;;2.00;;
33814;SDS011;20121;51.910;8.406;2023-02-15T04:20:23;2.60;;;1.90;;
33814;SDS011;20121;51.910;8.406;2023-02-15T04:23:07;5.82;;;3.35;;
33814;SDS011;20121;51.910;8.406;2023-02-15T04:25:52;3.15;;;2.30;;
33814;SDS011;20121;51.910;8.406;2023-02-15T04:28:18;4.72;;;2.25;;
33814;SDS011;20121;51.910;8.406;2023-02-15T04:30:43;3.43;;;3.00;;
33814;SDS011;20121;51.910;8.406;2023-02-15T04:33:09;6.80;;;3.77;;
33814;SDS011;20121;51.910;8.406;2023-02-15T04:35:35;3.42;;;1.77;;
33814;SDS011;20121;51.910;8.406;2023-02-15T04:38:01;3.47;;;2.07;;
33814;SDS011;20121;51.910;8.406;2023-02-15T04:40:26;8.20;;;2.97;;
33814;SDS011;20121;51.910;8.406;2023-02-15T04:42:52;3.17;;;2.10;;
33814;SDS011;20121;51.910;8.406;2023-02-15T04:45:17;5.03;;;2.10;;
33814;SDS011;20121;51.910;8.406;2023-02-15T04:47:43;6.23;;;3.27;;
33814;SDS011;20121;51.910;8.406;2023-02-15T04:50:09;3.07;;;2.77;;
33814;SDS011;20121;51.910;8.406;2023-02-15T04:52:35;2.35;;;1.90;;
33814;SDS011;20121;51.910;8.406;2023-02-15T04:55:01;1.93;;;1.30;;
33814;SDS011;20121;51.910;8.406;2023-02-15T04:57:27;5.47;;;4.50;;
33814;SDS011;20121;51.910;8.406;2023-02-15T04:59:52;2.93;;;2.73;;
33814;SDS011;20121;51.910;8.406;2023-02-15T05:02:18;8.38;;;1.95;;
33814;SDS011;20121;51.910;8.406;2023-02-15T05:04:44;3.03;;;2.77;;
33814;SDS011;20121;51.910;8.406;2023-02-15T05:07:10;3.47;;;2.30;;
33814;SDS011;20121;51.910;8.406;2023-02-15T05:09:35;3.30;;;2.37;;
33814;SDS011;20121;51.910;8.406;2023-02-15T05:12:01;1.87;;;1.50;;
33814;SDS011;20121;51.910;8.406;2023-02-15T05:14:26;3.33;;;3.03;;
33814;SDS011;20121;51.910;8.406;2023-02-15T05:16:52;1.87;;;1.50;;
33814;SDS011;20121;51.910;8.406;2023-02-15T05:19:19;5.63;;;1.95;;
33814;SDS011;20121;51.910;8.406;2023-02-15T05:21:44;7.53;;;2.70;;
33814;SDS011;20121;51.910;8.406;2023-02-15T05:24:10;3.60;;;3.30;;
33814;SDS011;20121;51.910;8.406;2023-02-15T05:26:55;5.82;;;3.53;;
33814;SDS011;20121;51.910;8.406;2023-02-15T05:29:39;3.72;;;2.70;;
33814;SDS011;20121;51.910;8.406;2023-02-15T05:32:05;2.80;;;2.43;;
33814;SDS011;20121;51.910;8.406;2023-02-15T05:34:30;3.57;;;3.10;;
33814;SDS011;20121;51.910;8.406;2023-02-15T05:36:56;2.60;;;1.90;;
33814;SDS011;20121;51.910;8.406;2023-02-15T05:39:21;2.73;;;1.97;;
33814;SDS011;20121;51.910;8.406;2023-02-15T05:41:47;2.50;;;1.90;;
33814;SDS011;20121;51.910;8.406;2023-02-15T05:44:13;2.85;;;2.17;;
33814;SDS011;20121;51.910;8.406;2023-02-15T05:46:39;3.87;;;1.47;;
33814;SDS011;20121;51.910;8.406;2023-02-15T05:49:04;3.53;;;2.17;;
33814;SDS011;20121;51.910;8.406;2023-02-15T05:51:30;3.90;;;2.90;;
33814;SDS011;20121;51.910;8.406;2023-02-15T05:53:55;2.63;;;2.43;;
33814;SDS011;20121;51.910;8.406;2023-02-15T05:56:21;2.27;;;2.07;;
33814;SDS011;20121;51.910;8.406;2023-02-15T05:58:47;4.13;;;3.23;;
33814;SDS011;20121;51.910;8.406;2023-02-15T06:01:16;1.60;;;1.40;;
33814;SDS011;20121;51.910;8.406;2023-02-15T06:03:43;2.13;;;1.95;;
33814;SDS011;20121;51.910;8.406;2023-02-15T06:06:10;6.60;;;3.83;;
33814;SDS011;20121;51.910;8.406;2023-02-15T06:08:36;1.83;;;1.67;;
33814;SDS011;20121;51.910;8.406;2023-02-15T06:11:02;1.77;;;1.65;;
33814;SDS011;20121;51.910;8.406;2023-02-15T06:13:29;3.70;;;3.35;;
33814;SDS011;20121;51.910;8.406;2023-02-15T06:15:55;4.18;;;3.35;;
33814;SDS011;20121;51.910;8.406;2023-02-15T06:18:21;1.07;;;1.00;;
33814;SDS011;20121;51.910;8.406;2023-02-15T06:20:46;2.80;;;2.03;;
33814;SDS011;20121;51.910;8.406;2023-02-15T06:23:13;1.98;;;1.77;;
33814;SDS011;20121;51.910;8.406;2023-02-15T06:25:38;1.60;;;1.27;;
33814;SDS011;20121;51.910;8.406;2023-02-15T06:28:04;1.93;;;1.83;;
33814;SDS011;20121;51.910;8.406;2023-02-15T06:30:30;1.70;;;1.60;;
33814;SDS011;20121;51.910;8.406;2023-02-15T06:32:56;1.98;;;1.75;;
33814;SDS011;20121;51.910;8.406;2023-02-15T06:35:21;1.53;;;1.43;;
33814;SDS011;20121;51.910;8.406;2023-02-15T06:37:47;3.10;;;2.87;;
33814;SDS011;20121;51.910;8.406;2023-02-15T06:40:13;9.10;;;5.10;;
33814;SDS011;20121;51.910;8.406;2023-02-15T06:42:40;2.42;;;2.00;;
33814;SDS011;20121;51.910;8.406;2023-02-15T06:45:07;1.98;;;1.02;;
33814;SDS011;20121;51.910;8.406;2023-02-15T06:47:33;3.25;;;2.95;;
33814;SDS011;20121;51.910;8.406;2023-02-15T06:49:59;2.30;;;2.10;;
33814;SDS011;20121;51.910;8.406;2023-02-15T06:52:25;6.67;;;3.80;;
33814;SDS011;20121;51.910;8.406;2023-02-15T06:54:50;2.63;;;2.43;;
33814;SDS011;20121;51.910;8.406;2023-02-15T06:57:16;3.03;;;1.90;;
33814;SDS011;20121;51.910;8.406;2023-02-15T06:59:42;3.87;;;3.47;;
33814;SDS011;20121;51.910;8.406;2023-02-15T07:02:08;1.73;;;1.57;;
33814;SDS011;20121;51.910;8.406;2023-02-15T07:04:36;10.68;;;2.95;;
33814;SDS011;20121;51.910;8.406;2023-02-15T07:07:01;2.13;;;2.00;;
33814;SDS011;20121;51.910;8.406;2023-02-15T07:09:27;1.83;;;1.13;;
33814;SDS011;20121;51.910;8.406;2023-02-15T07:11:53;2.13;;;1.43;;
33814;SDS011;20121;51.910;8.406;2023-02-15T07:14:37;10.15;;;1.83;;
33814;SDS011;20121;51.910;8.406;2023-02-15T07:17:03;6.53;;;1.90;;
33814;SDS011;20121;51.910;8.406;2023-02-15T07:19:28;3.10;;;2.80;;
33814;SDS011;20121;51.910;8.406;2023-02-15T07:21:54;1.80;;;1.63;;
33814;SDS011;20121;51.910;8.406;2023-02-15T07:24:19;2.60;;;2.30;;
33814;SDS011;20121;51.910;8.406;2023-02-15T07:26:45;1.17;;;1.10;;
33814;SDS011;20121;51.910;8.406;2023-02-15T07:29:11;1.73;;;1.63;;
33814;SDS011;20121;51.910;8.406;2023-02-15T07:31:36;1.57;;;1.47;;
33814;SDS011;20121;51.910;8.406;2023-02-15T07:34:02;3.47;;;3.20;;
33814;SDS011;20121;51.910;8.406;2023-02-15T07:36:27;1.10;;;1.00;;
33814;SDS011;20121;51.910;8.406;2023-02-15T07:38:53;2.77;;;2.07;;
33814;SDS011;20121;51.910;8.406;2023-02-15T07:41:19;3.03;;;2.13;;
33814;SDS011;20121;51.910;8.406;2023-02-15T07:43:44;1.87;;;1.77;;
33814;SDS011;20121;51.910;8.406;2023-02-15T07:46:11;5.33;;;1.93;;
33814;SDS011;20121;51.910;8.406;2023-02-15T07:48:39;3.40;;;3.13;;
33814;SDS011;20121;51.910;8.406;2023-02-15T07:51:06;11.82;;;2.75;;
33814;SDS011;20121;51.910;8.406;2023-02-15T07:53:34;3.90;;;2.67;;
33814;SDS011;20121;51.910;8.406;2023-02-15T07:56:01;8.20;;;3.50;;
33814;SDS011;20121;51.910;8.406;2023-02-15T07:58:28;6.20;;;3.63;;
33814;SDS011;20121;51.910;8.406;2023-02-15T08:01:12;1.52;;;1.42;;
33814;SDS011;20121;51.910;8.406;2023-02-15T08:03:39;3.38;;;1.60;;
33814;SDS011;20121;51.910;8.406;2023-02-15T08:06:04;2.50;;;2.10;;
33814;SDS011;20121;51.910;8.406;2023-02-15T08:08:30;2.60;;;2.10;;
33814;SDS011;20121;51.910;8.406;2023-02-15T08:10:59;3.42;;;3.13;;
33814;SDS011;20121;51.910;8.406;2023-02-15T08:13:44;2.67;;;2.47;;
33814;SDS011;20121;51.910;8.406;2023-02-15T08:16:21;4.82;;;2.45;;
33814;SDS011;20121;51.910;8.406;2023-02-15T08:18:48;7.43;;;2.38;;
33814;SDS011;20121;51.910;8.406;2023-02-15T08:21:13;5.03;;;3.17;;
33814;SDS011;20121;51.910;8.406;2023-02-15T08:23:39;2.73;;;2.53;;
33814;SDS011;20121;51.910;8.406;2023-02-15T08:26:04;4.30;;;3.10;;
33814;SDS011;20121;51.910;8.406;2023-02-15T08:28:30;9.27;;;4.77;;
33814;SDS011;20121;51.910;8.406;2023-02-15T08:31:03;5.30;;;3.90;;
33814;SDS011;20121;51.910;8.406;2023-02-15T08:33:33;4.63;;;3.08;;
33814;SDS011;20121;51.910;8.406;2023-02-15T08:36:07;6.95;;;2.35;;
33814;SDS011;20121;51.910;8.406;2023-02-15T08:38:37;3.70;;;3.38;;
33814;SDS011;20121;51.910;8.406;2023-02-15T08:41:13;5.47;;;2.90;;
33814;SDS011;20121;51.910;8.406;2023-02-15T08:43:41;3.28;;;2.55;;
33814;SDS011;20121;51.910;8.406;2023-02-15T08:46:07;5.78;;;2.50;;
33814;SDS011;20121;51.910;8.406;2023-02-15T08:48:34;5.50;;;3.90;;
33814;SDS011;20121;51.910;8.406;2023-02-15T08:51:04;5.00;;;4.60;;
33814;SDS011;20121;51.910;8.406;2023-02-15T08:53:35;6.80;;;2.90;;
33814;SDS011;20121;51.910;8.406;2023-02-15T08:56:02;2.13;;;1.63;;
33814;SDS011;20121;51.910;8.406;2023-02-15T08:58:28;2.00;;;1.80;;
33814;SDS011;20121;51.910;8.406;2023-02-15T09:00:55;4.38;;;3.25;;
33814;SDS011;20121;51.910;8.406;2023-02-15T09:03:21;2.45;;;2.25;;
33814;SDS011;20121;51.910;8.406;2023-02-15T09:05:47;4.60;;;2.40;;
33814;SDS011;20121;51.910;8.406;2023-02-15T09:08:12;4.80;;;3.80;;
33814;SDS011;20121;51.910;8.406;2023-02-15T09:10:38;3.30;;;3.00;;
33814;SDS011;20121;51.910;8.406;2023-02-15T09:13:04;2.50;;;2.30;;
33814;SDS011;20121;51.910;8.406;2023-02-15T09:15:29;5.33;;;2.97;;
33814;SDS011;20121;51.910;8.406;2023-02-15T09:17:55;1.93;;;1.70;;
33814;SDS011;20121;51.910;8.406;2023-02-15T09:20:21;4.20;;;3.23;;
33814;SDS011;20121;51.910;8.406;2023-02-15T09:22:47;2.75;;;2.55;;
33814;SDS011;20121;51.910;8.406;2023-02-15T09:25:13;6.27;;;4.40;;
33814;SDS011;20121;51.910;8.406;2023-02-15T09:27:39;6.70;;;4.50;;
33814;SDS011;20121;51.910;8.406;2023-02-15T09:30:05;5.43;;;3.03;;
33814;SDS011;20121;51.910;8.406;2023-02-15T09:32:31;5.53;;;3.22;;
33814;SDS011;20121;51.910;8.406;2023-02-15T09:34:56;5.07;;;2.60;;
33814;SDS011;20121;51.910;8.406;2023-02-15T09:37:22;2.70;;;2.50;;
33814;SDS011;20121;51.910;8.406;2023-02-15T09:39:48;6.27;;;4.07;;
33814;SDS011;20121;51.910;8.406;2023-02-15T09:45:09;4.70;;;4.30;;
33814;SDS011;20121;51.910;8.406;2023-02-15T10:18:58;3.28;;;2.03;;
33814;SDS011;20121;51.910;8.406;2023-02-15T10:24:33;3.33;;;2.05;;
33814;SDS011;20121;51.910;8.406;2023-02-15T10:27:13;7.10;;;4.22;;
33814;SDS011;20121;51.910;8.406;2023-02-15T10:32:59;2.40;;;1.98;;
33814;SDS011;20121;51.910;8.406;2023-02-15T10:35:31;4.53;;;3.55;;
33814;SDS011;20121;51.910;8.406;2023-02-15T10:41:09;5.88;;;3.00;;
33814;SDS011;20121;51.910;8.406;2023-02-15T10:44:13;5.00;;;2.53;;
33814;SDS011;20121;51.910;8.406;2023-02-15T11:00:14;3.83;;;2.90;;
33814;SDS011;20121;51.910;8.406;2023-02-15T11:07:57;2.50;;;2.05;;
33814;SDS011;20121;51.910;8.406;2023-02-15T11:13:22;4.18;;;2.95;;
33814;SDS011;20121;51.910;8.406;2023-02-15T11:15:56;3.58;;;2.20;;
33814;SDS011;20121;51.910;8.406;2023-02-15T11:20:56;2.83;;;2.43;;
33814;SDS011;20121;51.910;8.406;2023-02-15T11:23:26;7.38;;;3.55;;
33814;SDS011;20121;51.910;8.406;2023-02-15T11:26:03;4.65;;;4.10;;
33814;SDS011;20121;51.910;8.406;2023-02-15T11:31:42;8.35;;;4.78;;
33814;SDS011;20121;51.910;8.406;2023-02-15T11:34:17;7.20;;;3.78;;
33814;SDS011;20121;51.910;8.406;2023-02-15T11:36:52;3.92;;;2.90;;
33814;SDS011;20121;51.910;8.406;2023-02-15T11:39:20;5.20;;;2.75;;
33814;SDS011;20121;51.910;8.406;2023-02-15T11:41:49;6.18;;;3.70;;
33814;SDS011;20121;51.910;8.406;2023-02-15T11:44:22;4.35;;;2.83;;
33814;SDS011;20121;51.910;8.406;2023-02-15T11:46:51;6.03;;;3.85;;
33814;SDS011;20121;51.910;8.406;2023-02-15T11:49:27;8.95;;;3.60;;
33814;SDS011;20121;51.910;8.406;2023-02-15T11:51:57;6.18;;;3.60;;
33814;SDS011;20121;51.910;8.406;2023-02-15T11:54:28;5.15;;;4.60;;
33814;SDS011;20121;51.910;8.406;2023-02-15T11:56:58;4.65;;;3.45;;
33814;SDS011;20121;51.910;8.406;2023-02-15T11:59:32;5.57;;;5.07;;
33814;SDS011;20121;51.910;8.406;2023-02-15T12:02:02;10.43;;;3.67;;
33814;SDS011;20121;51.910;8.406;2023-02-15T12:04:40;12.93;;;3.83;;
33814;SDS011;20121;51.910;8.406;2023-02-15T12:09:48;7.78;;;3.28;;
33814;SDS011;20121;51.910;8.406;2023-02-15T12:12:20;7.82;;;4.57;;
33814;SDS011;20121;51.910;8.406;2023-02-15T12:14:48;6.97;;;5.30;;
33814;SDS011;20121;51.910;8.406;2023-02-15T12:17:16;8.82;;;3.65;;
33814;SDS011;20121;51.910;8.406;2023-02-15T12:19:42;9.63;;;4.68;;
33814;SDS011;20121;51.910;8.406;2023-02-15T12:22:23;5.88;;;4.18;;
33814;SDS011;20121;51.910;8.406;2023-02-15T12:24:55;4.57;;;3.20;;
33814;SDS011;20121;51.910;8.406;2023-02-15T12:27:24;7.10;;;3.30;;
33814;SDS011;20121;51.910;8.406;2023-02-15T12:32:34;11.85;;;5.28;;
33814;SDS011;20121;51.910;8.406;2023-02-15T12:35:08;8.82;;;5.07;;
33814;SDS011;20121;51.910;8.406;2023-02-15T12:37:39;8.82;;;4.65;;
33814;SDS011;20121;51.910;8.406;2023-02-15T12:40:23;11.00;;;6.13;;
33814;SDS011;20121;51.910;8.406;2023-02-15T12:42:53;9.65;;;3.97;;
33814;SDS011;20121;51.910;8.406;2023-02-15T12:45:24;8.57;;;4.13;;
33814;SDS011;20121;51.910;8.406;2023-02-15T12:50:41;11.30;;;5.72;;
33814;SDS011;20121;51.910;8.406;2023-02-15T12:53:19;12.15;;;4.05;;
33814;SDS011;20121;51.910;8.406;2023-02-15T12:55:53;17.20;;;6.50;;
33814;SDS011;20121;51.910;8.406;2023-02-15T12:58:24;10.23;;;6.50;;
33814;SDS011;20121;51.910;8.406;2023-02-15T13:01:08;7.93;;;5.28;;
33814;SDS011;20121;51.910;8.406;2023-02-15T13:03:55;8.82;;;5.60;;
33814;SDS011;20121;51.910;8.406;2023-02-15T13:06:27;20.83;;;7.22;;
33814;SDS011;20121;51.910;8.406;2023-02-15T13:08:55;11.80;;;5.45;;
33814;SDS011;20121;51.910;8.406;2023-02-15T13:11:40;7.95;;;4.97;;
33814;SDS011;20121;51.910;8.406;2023-02-15T13:14:18;9.40;;;5.75;;
33814;SDS011;20121;51.910;8.406;2023-02-15T13:16:47;9.32;;;5.57;;
33814;SDS011;20121;51.910;8.406;2023-02-15T13:19:20;13.10;;;5.38;;
33814;SDS011;20121;51.910;8.406;2023-02-15T13:21:52;12.77;;;5.60;;
33814;SDS011;20121;51.910;8.406;2023-02-15T13:24:22;6.78;;;4.13;;
33814;SDS011;20121;51.910;8.406;2023-02-15T13:26:57;7.70;;;5.30;;
33814;SDS011;20121;51.910;8.406;2023-02-15T13:29:25;10.18;;;5.32;;
33814;SDS011;20121;51.910;8.406;2023-02-15T13:31:57;8.10;;;4.95;;
33814;SDS011;20121;51.910;8.406;2023-02-15T13:34:28;7.85;;;4.55;;
33814;SDS011;20121;51.910;8.406;2023-02-15T13:47:51;15.05;;;5.30;;
33814;SDS011;20121;51.910;8.406;2023-02-15T13:53:45;13.23;;;6.97;;
33814;SDS011;20121;51.910;8.406;2023-02-15T13:56:07;6.85;;;4.30;;
33814;SDS011;20121;51.910;8.406;2023-02-15T14:12:30;12.80;;;4.95;;
33814;SDS011;20121;51.910;8.406;2023-02-15T14:23:37;11.50;;;6.00;;
33814;SDS011;20121;51.910;8.406;2023-02-15T14:26:21;13.98;;;6.72;;
33814;SDS011;20121;51.910;8.406;2023-02-15T14:31:48;7.40;;;4.75;;
33814;SDS011;20121;51.910;8.406;2023-02-15T14:34:23;7.15;;;4.93;;
33814;SDS011;20121;51.910;8.406;2023-02-15T14:36:54;9.05;;;5.30;;
33814;SDS011;20121;51.910;8.406;2023-02-15T14:42:33;9.95;;;5.13;;
33814;SDS011;20121;51.910;8.406;2023-02-15T14:45:24;10.77;;;6.13;;
33814;SDS011;20121;51.910;8.406;2023-02-15T14:50:38;9.40;;;3.17;;
33814;SDS011;20121;51.910;8.406;2023-02-15T15:01:34;4.93;;;3.63;;
33814;SDS011;20121;51.910;8.406;2023-02-15T15:04:11;6.03;;;4.15;;
33814;SDS011;20121;51.910;8.406;2023-02-15T15:06:56;6.68;;;3.92;;
33814;SDS011;20121;51.910;8.406;2023-02-15T15:09:25;6.55;;;5.28;;
33814;SDS011;20121;51.910;8.406;2023-02-15T15:11:53;8.80;;;3.10;;
33814;SDS011;20121;51.910;8.406;2023-02-15T15:16:59;5.82;;;3.97;;
33814;SDS011;20121;51.910;8.406;2023-02-15T15:22:19;9.73;;;3.95;;
33814;SDS011;20121;51.910;8.406;2023-02-15T15:32:38;5.28;;;3.42;;
33814;SDS011;20121;51.910;8.406;2023-02-15T15:40:41;8.27;;;4.30;;
33814;SDS011;20121;51.910;8.406;2023-02-15T15:43:32;6.60;;;3.72;;
33814;SDS011;20121;51.910;8.406;2023-02-15T15:49:15;6.60;;;4.85;;
33814;SDS011;20121;51.910;8.406;2023-02-15T15:51:44;8.20;;;5.07;;
33814;SDS011;20121;51.910;8.406;2023-02-15T15:54:17;8.45;;;4.90;;
33814;SDS011;20121;51.910;8.406;2023-02-15T15:56:47;10.05;;;3.60;;
33814;SDS011;20121;51.910;8.406;2023-02-15T15:59:22;9.65;;;4.53;;
33814;SDS011;20121;51.910;8.406;2023-02-15T16:01:50;6.45;;;3.75;;
33814;SDS011;20121;51.910;8.406;2023-02-15T16:04:22;8.30;;;3.70;;
33814;SDS011;20121;51.910;8.406;2023-02-15T16:06:54;9.55;;;5.43;;
33814;SDS011;20121;51.910;8.406;2023-02-15T16:09:25;10.20;;;4.38;;
33814;SDS011;20121;51.910;8.406;2023-02-15T16:11:52;5.82;;;4.45;;
33814;SDS011;20121;51.910;8.406;2023-02-15T16:16:52;9.85;;;4.70;;
33814;SDS011;20121;51.910;8.406;2023-02-15T16:19:22;3.55;;;3.25;;
33814;SDS011;20121;51.910;8.406;2023-02-15T16:21:51;10.30;;;5.15;;
33814;SDS011;20121;51.910;8.406;2023-02-15T16:29:25;7.53;;;4.80;;
33814;SDS011;20121;51.910;8.406;2023-02-15T16:32:03;10.52;;;5.97;;
33814;SDS011;20121;51.910;8.406;2023-02-15T16:34:54;8.68;;;5.10;;
33814;SDS011;20121;51.910;8.406;2023-02-15T16:37:22;9.88;;;5.00;;
33814;SDS011;20121;51.910;8.406;2023-02-15T16:39:52;4.65;;;4.22;;
33814;SDS011;20121;51.910;8.406;2023-02-15T16:42:19;7.03;;;3.95;;
33814;SDS011;20121;51.910;8.406;2023-02-15T16:44:46;7.30;;;4.50;;
33814;SDS011;20121;51.910;8.406;2023-02-15T16:47:24;3.40;;;3.08;;
33814;SDS011;20121;51.910;8.406;2023-02-15T16:49:52;8.70;;;4.90;;
33814;SDS011;20121;51.910;8.406;2023-02-15T16:52:22;9.65;;;5.72;;
33814;SDS011;20121;51.910;8.406;2023-02-15T16:54:54;5.10;;;4.07;;
33814;SDS011;20121;51.910;8.406;2023-02-15T16:57:26;7.97;;;4.97;;
33814;SDS011;20121;51.910;8.406;2023-02-15T16:59:57;11.93;;;5.25;;
33814;SDS011;20121;51.910;8.406;2023-02-15T17:02:33;9.27;;;4.45;;
33814;SDS011;20121;51.910;8.406;2023-02-15T17:05:47;8.35;;;5.07;;
33814;SDS011;20121;51.910;8.406;2023-02-15T17:10:42;5.18;;;3.53;;
33814;SDS011;20121;51.910;8.406;2023-02-15T17:13:12;6.28;;;3.72;;
33814;SDS011;20121;51.910;8.406;2023-02-15T17:16:08;5.78;;;3.58;;
33814;SDS011;20121;51.910;8.406;2023-02-15T17:18:30;5.95;;;3.97;;
33814;SDS011;20121;51.910;8.406;2023-02-15T17:21:39;5.10;;;2.60;;
33814;SDS011;20121;51.910;8.406;2023-02-15T17:23:59;4.82;;;3.78;;
33814;SDS011;20121;51.910;8.406;2023-02-15T17:26:30;3.33;;;2.88;;
33814;SDS011;20121;51.910;8.406;2023-02-15T17:28:59;8.48;;;5.00;;
33814;SDS011;20121;51.910;8.406;2023-02-15T17:31:39;5.28;;;3.47;;
33814;SDS011;20121;51.910;8.406;2023-02-15T17:34:05;4.53;;;3.27;;
33814;SDS011;20121;51.910;8.406;2023-02-15T17:36:31;4.63;;;3.50;;
33814;SDS011;20121;51.910;8.406;2023-02-15T17:41:26;7.33;;;4.23;;
33814;SDS011;20121;51.910;8.406;2023-02-15T17:43:56;5.05;;;3.78;;
33814;SDS011;20121;51.910;8.406;2023-02-15T17:46:22;4.78;;;3.17;;
33814;SDS011;20121;51.910;8.406;2023-02-15T17:48:50;3.92;;;3.33;;
33814;SDS011;20121;51.910;8.406;2023-02-15T17:51:17;5.93;;;3.90;;
33814;SDS011;20121;51.910;8.406;2023-02-15T17:53:44;3.75;;;3.20;;
33814;SDS011;20121;51.910;8.406;2023-02-15T17:56:30;3.05;;;2.75;;
33814;SDS011;20121;51.910;8.406;2023-02-15T17:58:56;6.05;;;4.13;;
33814;SDS011;20121;51.910;8.406;2023-02-15T18:01:21;5.10;;;3.10;;
33814;SDS011;20121;51.910;8.406;2023-02-15T18:04:12;9.88;;;5.45;;
33814;SDS011;20121;51.910;8.406;2023-02-15T18:06:57;3.40;;;3.05;;
33814;SDS011;20121;51.910;8.406;2023-02-15T18:09:42;10.15;;;3.20;;
33814;SDS011;20121;51.910;8.406;2023-02-15T18:12:27;4.50;;;2.35;;
33814;SDS011;20121;51.910;8.406;2023-02-15T18:14:55;5.22;;;3.75;;
33814;SDS011;20121;51.910;8.406;2023-02-15T18:17:22;3.30;;;2.95;;
33814;SDS011;20121;51.910;8.406;2023-02-15T18:20:25;4.20;;;2.50;;
33814;SDS011;20121;51.910;8.406;2023-02-15T18:22:55;4.82;;;3.60;;
33814;SDS011;20121;51.910;8.406;2023-02-15T18:25:21;3.93;;;2.97;;
33814;SDS011;20121;51.910;8.406;2023-02-15T18:27:49;8.15;;;4.47;;
33814;SDS011;20121;51.910;8.406;2023-02-15T18:30:16;4.00;;;3.60;;
33814;SDS011;20121;51.910;8.406;2023-02-15T18:32:44;7.32;;;4.93;;
33814;SDS011;20121;51.910;8.406;2023-02-15T18:35:14;8.20;;;4.43;;